createdAt,value
2022-12-25T00:00:54.677Z,89.20
2022-12-25T00:03:01.894Z,89.20
2022-12-25T00:05:09.395Z,89.40
2022-12-25T00:07:16.417Z,89.40
2022-12-25T00:09:24.881Z,89.50
2022-12-25T00:11:32.216Z,89.30
2022-12-25T00:13:39.209Z,89.30
2022-12-25T00:15:46.462Z,89.40
2022-12-25T00:17:53.308Z,89.40
2022-12-25T00:20:00.379Z,88.80
2022-12-25T00:22:07.200Z,88.80
2022-12-25T00:24:14.435Z,88.80
2022-12-25T00:26:23.050Z,88.70
2022-12-25T00:28:30.128Z,88.60
2022-12-25T00:30:36.833Z,88.70
2022-12-25T00:32:44.122Z,88.30
2022-12-25T00:34:52.092Z,88.30
2022-12-25T00:36:59.263Z,88.20
2022-12-25T00:39:06.187Z,88.40
2022-12-25T00:41:15.215Z,88.50
2022-12-25T00:43:24.090Z,88.90
2022-12-25T00:45:31.343Z,89.00
2022-12-25T00:47:38.250Z,89.40
2022-12-25T00:49:45.526Z,89.20
2022-12-25T00:51:53.065Z,89.30
2022-12-25T00:54:00.066Z,89.10
2022-12-25T00:56:09.679Z,89.00
2022-12-25T00:58:16.509Z,88.70
2022-12-25T01:00:25.536Z,88.50
2022-12-25T01:02:32.543Z,88.40
2022-12-25T01:04:39.738Z,87.80
2022-12-25T01:06:46.570Z,88.10
2022-12-25T01:09:10.437Z,87.40
2022-12-25T01:11:17.257Z,87.30
2022-12-25T01:13:24.491Z,86.60
2022-12-25T01:15:33.059Z,86.00
2022-12-25T01:17:40.148Z,85.60
2022-12-25T01:19:47.060Z,85.40
2022-12-25T01:21:54.452Z,84.70
2022-12-25T01:24:01.529Z,84.70
2022-12-25T01:26:08.755Z,83.80
2022-12-25T01:28:15.581Z,82.50
2022-12-25T01:30:22.862Z,82.30
2022-12-25T01:32:31.479Z,82.40
2022-12-25T01:34:38.608Z,82.60
2022-12-25T01:36:45.435Z,81.70
2022-12-25T01:38:52.681Z,81.10
2022-12-25T01:40:59.385Z,81.00
2022-12-25T01:43:07.396Z,81.10
2022-12-25T01:45:39.481Z,80.00
2022-12-25T01:47:48.371Z,80.10
2022-12-25T01:49:55.232Z,78.90
2022-12-25T01:52:05.927Z,78.20
2022-12-25T01:54:17.039Z,78.20
2022-12-25T01:56:24.063Z,78.00
2022-12-25T01:58:31.451Z,77.50
2022-12-25T02:00:39.200Z,76.70
2022-12-25T02:02:48.766Z,77.20
2022-12-25T02:05:00.881Z,77.30
2022-12-25T02:07:07.195Z,76.40
2022-12-25T02:09:14.317Z,76.10
2022-12-25T02:11:34.660Z,76.30
2022-12-25T02:13:41.536Z,75.30
2022-12-25T02:15:57.317Z,76.10
2022-12-25T02:18:12.425Z,75.80
2022-12-25T02:21:06.263Z,75.80
2022-12-25T02:23:53.824Z,75.70
2022-12-25T02:26:14.794Z,73.80
2022-12-25T02:28:28.987Z,72.60
2022-12-25T02:30:42.057Z,71.60
2022-12-25T02:33:16.375Z,71.40
2022-12-25T02:35:31.678Z,70.90
2022-12-25T02:37:43.487Z,70.50
2022-12-25T02:40:00.320Z,70.20
2022-12-25T02:42:10.394Z,69.20
2022-12-25T02:44:39.118Z,69.90
2022-12-25T02:47:03.772Z,68.90
2022-12-25T02:49:31.448Z,68.30
2022-12-25T02:51:59.622Z,68.70
2022-12-25T02:54:42.630Z,67.60
2022-12-25T02:57:08.503Z,67.40
2022-12-25T02:59:36.214Z,66.50
2022-12-25T03:02:01.037Z,65.30
2022-12-25T03:04:28.412Z,65.70
2022-12-25T03:06:47.666Z,66.00
2022-12-25T03:09:20.103Z,65.30
2022-12-25T03:11:34.919Z,64.60
2022-12-25T03:13:44.755Z,65.40
2022-12-25T03:16:10.375Z,65.30
2022-12-25T03:18:21.083Z,64.60
2022-12-25T03:20:45.568Z,65.00
2022-12-25T03:23:09.498Z,65.00
2022-12-25T03:25:33.919Z,64.70
2022-12-25T03:27:42.596Z,64.50
2022-12-25T03:30:06.014Z,64.30
2022-12-25T03:32:23.994Z,63.80
2022-12-25T03:34:54.777Z,62.40
2022-12-25T03:37:25.831Z,61.60
2022-12-25T03:39:58.655Z,62.70
2022-12-25T03:42:25.547Z,62.10
2022-12-25T03:44:57.253Z,61.80
2022-12-25T03:47:26.554Z,60.80
2022-12-25T03:49:56.979Z,60.90
2022-12-25T03:52:21.724Z,61.40
2022-12-25T03:54:48.084Z,60.80
2022-12-25T03:57:11.847Z,60.20
2022-12-25T03:59:39.539Z,60.10
2022-12-25T04:02:03.776Z,60.70
2022-12-25T04:04:35.781Z,58.90
2022-12-25T04:07:00.943Z,60.20
2022-12-25T04:09:24.501Z,60.00
2022-12-25T04:11:47.760Z,60.00
2022-12-25T04:14:11.019Z,59.10
2022-12-25T04:16:34.786Z,58.40
2022-12-25T04:18:58.098Z,58.80
2022-12-25T04:21:21.566Z,58.90
2022-12-25T04:23:46.816Z,58.50
2022-12-25T04:26:10.595Z,58.40
2022-12-25T04:28:48.340Z,57.80
2022-12-25T04:31:12.089Z,56.30
2022-12-25T04:33:35.369Z,55.30
2022-12-25T04:35:58.832Z,56.00
2022-12-25T04:38:05.701Z,56.30
2022-12-25T04:40:15.443Z,56.10
2022-12-25T04:42:22.424Z,55.40
2022-12-25T04:44:29.650Z,55.50
2022-12-25T04:46:36.447Z,54.60
2022-12-25T04:48:43.489Z,54.00
2022-12-25T04:50:48.894Z,54.40
2022-12-25T04:52:56.023Z,55.10
2022-12-25T04:55:02.853Z,53.50
2022-12-25T04:57:11.729Z,54.20
2022-12-25T04:59:18.648Z,54.20
2022-12-25T05:01:25.950Z,54.60
2022-12-25T05:03:33.491Z,54.00
2022-12-25T05:05:43.388Z,53.90
2022-12-25T05:07:50.082Z,53.60
2022-12-25T05:09:57.236Z,53.40
2022-12-25T05:12:04.000Z,54.40
2022-12-25T05:14:12.856Z,53.60
2022-12-25T05:16:21.717Z,53.30
2022-12-25T05:18:28.556Z,54.20
2022-12-25T05:20:39.862Z,54.00
2022-12-25T05:22:47.268Z,51.90
2022-12-25T05:24:54.192Z,53.00
2022-12-25T05:27:01.075Z,53.90
2022-12-25T05:29:08.099Z,53.90
2022-12-25T05:31:16.796Z,52.90
2022-12-25T05:33:23.945Z,52.00
2022-12-25T05:35:30.773Z,51.10
2022-12-25T05:37:37.846Z,52.20
2022-12-25T05:39:44.554Z,53.00
2022-12-25T05:41:51.858Z,53.10
2022-12-25T05:43:58.672Z,52.70
2022-12-25T05:46:09.783Z,51.70
2022-12-25T05:48:18.359Z,51.60
2022-12-25T05:50:25.336Z,51.60
2022-12-25T05:52:43.577Z,51.50
2022-12-25T05:54:50.604Z,50.00
2022-12-25T05:56:57.534Z,50.20
2022-12-25T05:59:04.464Z,49.30
2022-12-25T06:01:16.436Z,49.80
2022-12-25T06:03:25.334Z,51.10
2022-12-25T06:05:32.270Z,50.80
2022-12-25T06:07:39.223Z,50.80
2022-12-25T06:09:45.994Z,50.70
2022-12-25T06:11:53.128Z,51.10
2022-12-25T06:13:59.949Z,51.20
2022-12-25T06:16:08.138Z,51.40
2022-12-25T06:18:15.001Z,51.10
2022-12-25T06:20:24.209Z,51.00
2022-12-25T06:22:32.933Z,51.30
2022-12-25T06:24:40.432Z,51.20
2022-12-25T06:26:47.236Z,50.20
2022-12-25T06:28:54.425Z,50.10
2022-12-25T06:31:01.446Z,50.10
2022-12-25T06:33:08.592Z,49.20
2022-12-25T06:35:15.660Z,49.50
2022-12-25T06:37:24.228Z,49.50
2022-12-25T06:39:31.408Z,49.50
2022-12-25T06:41:38.735Z,49.30
2022-12-25T06:43:45.668Z,48.40
2022-12-25T06:45:54.112Z,48.70
2022-12-25T06:48:00.953Z,48.20
2022-12-25T06:50:09.008Z,48.80
2022-12-25T06:52:15.872Z,48.50
2022-12-25T06:54:24.798Z,48.00
2022-12-25T06:56:32.037Z,48.40
2022-12-25T06:58:39.874Z,48.10
2022-12-25T07:00:46.689Z,47.60
2022-12-25T07:02:54.165Z,47.30
2022-12-25T07:05:01.064Z,48.80
2022-12-25T07:07:09.663Z,48.60
2022-12-25T07:09:16.558Z,48.60
2022-12-25T07:11:25.317Z,48.90
2022-12-25T07:13:32.404Z,48.70
2022-12-25T07:15:39.599Z,48.70
2022-12-25T07:17:46.403Z,47.80
2022-12-25T07:19:53.840Z,47.50
2022-12-25T07:22:01.079Z,47.70
2022-12-25T07:24:08.621Z,47.90
2022-12-25T07:26:16.103Z,47.70
2022-12-25T07:28:24.731Z,48.00
2022-12-25T07:30:31.490Z,48.30
2022-12-25T07:32:38.567Z,48.20
2022-12-25T07:34:45.445Z,48.50
2022-12-25T07:36:52.522Z,47.40
2022-12-25T07:38:59.652Z,45.90
2022-12-25T07:41:10.691Z,47.50
2022-12-25T07:43:17.453Z,47.00
2022-12-25T07:45:26.756Z,47.60
2022-12-25T07:47:33.499Z,48.00
2022-12-25T07:49:40.488Z,48.60
2022-12-25T07:51:47.262Z,48.70
2022-12-25T07:53:54.379Z,46.90
2022-12-25T07:56:02.801Z,47.40
2022-12-25T07:58:09.866Z,45.70
2022-12-25T08:00:17.766Z,46.20
2022-12-25T08:02:29.774Z,46.10
2022-12-25T08:04:36.231Z,47.60
2022-12-25T08:06:43.103Z,47.80
2022-12-25T08:08:50.181Z,47.80
2022-12-25T08:10:57.258Z,48.20
2022-12-25T08:13:07.683Z,48.10
2022-12-25T08:15:18.076Z,47.20
2022-12-25T08:17:26.943Z,47.60
2022-12-25T08:19:33.922Z,48.10
2022-12-25T08:21:41.570Z,48.00
2022-12-25T08:23:49.667Z,48.40
2022-12-25T08:26:00.365Z,48.20
2022-12-25T08:28:11.253Z,47.50
2022-12-25T08:30:18.739Z,48.10
2022-12-25T08:32:27.147Z,47.50
2022-12-25T08:34:34.329Z,46.10
2022-12-25T08:36:42.535Z,46.50
2022-12-25T08:38:49.975Z,46.70
2022-12-25T08:40:56.846Z,47.30
2022-12-25T08:43:03.881Z,46.80
2022-12-25T08:45:12.564Z,46.30
2022-12-25T08:47:19.729Z,47.00
2022-12-25T08:49:30.180Z,47.40
2022-12-25T08:51:38.249Z,47.70
2022-12-25T08:53:45.165Z,48.00
2022-12-25T08:55:52.084Z,48.30
2022-12-25T08:57:58.861Z,48.70
2022-12-25T09:00:06.440Z,48.50
2022-12-25T09:02:14.972Z,48.50
2022-12-25T09:04:22.295Z,48.80
2022-12-25T09:06:30.859Z,48.80
2022-12-25T09:08:44.010Z,49.20
2022-12-25T09:10:54.796Z,49.20
2022-12-25T09:13:02.030Z,49.50
2022-12-25T09:15:09.811Z,49.10
2022-12-25T09:17:16.802Z,48.60
2022-12-25T09:19:23.626Z,48.90
2022-12-25T09:21:32.447Z,49.20
2022-12-25T09:23:39.883Z,49.20
2022-12-25T09:25:46.706Z,49.90
2022-12-25T09:27:53.580Z,49.10
2022-12-25T09:30:01.175Z,48.90
2022-12-25T09:32:08.866Z,49.00
2022-12-25T09:34:19.002Z,49.10
2022-12-25T09:36:26.607Z,49.30
2022-12-25T09:38:35.929Z,49.60
2022-12-25T09:40:43.125Z,49.20
2022-12-25T09:42:51.174Z,49.20
2022-12-25T09:45:00.966Z,49.20
2022-12-25T09:47:11.065Z,49.30
2022-12-25T09:49:23.577Z,49.90
2022-12-25T09:51:36.387Z,50.20
2022-12-25T09:53:49.098Z,50.60
2022-12-25T09:56:02.781Z,50.60
2022-12-25T09:58:15.339Z,51.00
2022-12-25T10:00:24.622Z,51.60
2022-12-25T10:03:04.271Z,51.80
2022-12-25T10:05:35.009Z,51.70
2022-12-25T10:07:48.681Z,51.60
2022-12-25T10:10:12.663Z,51.90
2022-12-25T10:12:32.644Z,52.40
2022-12-25T10:15:03.423Z,52.60
2022-12-25T10:17:29.345Z,53.00
2022-12-25T10:19:50.759Z,53.00
2022-12-25T10:22:02.038Z,53.00
2022-12-25T10:24:33.543Z,52.90
2022-12-25T10:26:42.410Z,52.80
2022-12-25T10:28:58.806Z,53.00
2022-12-25T10:31:17.907Z,53.00
2022-12-25T10:33:24.843Z,53.00
2022-12-25T10:35:33.919Z,53.00
2022-12-25T10:37:41.001Z,53.20
2022-12-25T10:39:48.192Z,53.30
2022-12-25T10:42:22.499Z,53.50
2022-12-25T10:44:29.629Z,53.60
2022-12-25T10:46:36.879Z,53.90
2022-12-25T10:48:46.808Z,53.90
2022-12-25T10:50:54.607Z,54.50
2022-12-25T10:53:06.605Z,55.10
2022-12-25T10:55:28.144Z,55.00
2022-12-25T10:57:48.976Z,55.30
2022-12-25T10:59:57.798Z,55.40
2022-12-25T11:02:16.319Z,56.10
2022-12-25T11:04:24.903Z,55.70
2022-12-25T11:06:33.929Z,55.70
2022-12-25T11:08:40.851Z,56.40
2022-12-25T11:10:54.740Z,56.30
2022-12-25T11:13:04.588Z,56.30
2022-12-25T11:15:41.593Z,56.40
2022-12-25T11:17:52.692Z,57.70
2022-12-25T11:20:01.592Z,59.50
2022-12-25T11:22:19.858Z,60.70
2022-12-25T11:24:29.596Z,61.30
2022-12-25T11:26:49.062Z,60.60
2022-12-25T11:28:58.649Z,60.90
2022-12-25T11:31:10.966Z,61.90
2022-12-25T11:33:19.162Z,63.00
2022-12-25T11:35:31.054Z,63.70
2022-12-25T11:37:45.206Z,64.20
2022-12-25T11:39:52.019Z,64.70
2022-12-25T11:42:03.395Z,65.30
2022-12-25T11:44:20.872Z,65.10
2022-12-25T11:46:34.422Z,66.20
2022-12-25T11:48:46.599Z,67.00
2022-12-25T11:50:58.495Z,67.60
2022-12-25T11:53:06.290Z,67.60
2022-12-25T11:55:21.253Z,69.80
2022-12-25T11:57:31.124Z,68.90
2022-12-25T11:59:41.810Z,68.70
2022-12-25T12:01:53.802Z,69.20
2022-12-25T12:04:00.595Z,69.50
2022-12-25T12:06:12.015Z,71.00
2022-12-25T12:08:18.784Z,70.10
2022-12-25T12:10:43.627Z,69.70
2022-12-25T12:12:56.797Z,68.00
2022-12-25T12:15:15.530Z,66.90
2022-12-25T12:17:24.328Z,66.70
2022-12-25T12:19:35.698Z,67.70
2022-12-25T12:21:45.089Z,69.40
2022-12-25T12:23:58.105Z,70.20
2022-12-25T12:26:05.652Z,70.70
2022-12-25T12:28:24.864Z,71.10
2022-12-25T12:30:33.978Z,71.50
2022-12-25T12:32:46.324Z,71.70
2022-12-25T12:34:52.337Z,72.60
2022-12-25T12:37:04.762Z,72.60
2022-12-25T12:39:23.548Z,71.50
2022-12-25T12:41:48.033Z,71.10
2022-12-25T12:44:00.388Z,71.20
2022-12-25T12:46:11.506Z,71.30
2022-12-25T12:48:28.934Z,71.60
2022-12-25T12:50:38.827Z,72.20
2022-12-25T12:52:45.856Z,73.20
2022-12-25T12:55:02.275Z,72.60
2022-12-25T12:57:10.358Z,72.80
2022-12-25T12:59:17.333Z,72.90
2022-12-25T13:01:44.050Z,73.50
2022-12-25T13:04:17.317Z,74.80
2022-12-25T13:06:31.568Z,75.50
2022-12-25T13:08:51.101Z,75.40
2022-12-25T13:11:13.685Z,75.60
2022-12-25T13:13:24.961Z,75.40
2022-12-25T13:15:35.169Z,75.00
2022-12-25T13:17:49.096Z,74.90
2022-12-25T13:20:00.298Z,75.40
2022-12-25T13:22:08.173Z,75.60
2022-12-25T13:24:24.056Z,75.40
2022-12-25T13:26:31.655Z,75.70
2022-12-25T13:28:39.908Z,75.90
2022-12-25T13:30:48.112Z,76.20
2022-12-25T13:32:55.354Z,76.70
2022-12-25T13:35:04.165Z,75.80
2022-12-25T13:37:13.292Z,76.60
2022-12-25T13:39:21.292Z,76.50
2022-12-25T13:41:46.956Z,77.00
2022-12-25T13:43:53.779Z,77.20
2022-12-25T13:46:00.976Z,77.00
2022-12-25T13:48:17.972Z,76.90
2022-12-25T13:50:28.535Z,76.30
2022-12-25T13:52:39.087Z,76.80
2022-12-25T13:54:57.502Z,77.20
2022-12-25T13:57:04.931Z,76.90
2022-12-25T13:59:20.146Z,76.20
2022-12-25T14:01:27.016Z,75.70
2022-12-25T14:03:38.733Z,76.00
2022-12-25T14:05:47.169Z,76.40
2022-12-25T14:07:55.890Z,76.70
2022-12-25T14:10:05.372Z,77.00
2022-12-25T14:12:18.966Z,77.60
2022-12-25T14:14:28.191Z,77.70
2022-12-25T14:16:35.449Z,77.00
2022-12-25T14:18:52.842Z,76.60
2022-12-25T14:21:04.447Z,76.40
2022-12-25T14:23:17.905Z,77.40
2022-12-25T14:25:26.263Z,77.90
2022-12-25T14:27:33.903Z,78.10
2022-12-25T14:29:42.881Z,77.80
2022-12-25T14:31:50.983Z,77.00
2022-12-25T14:33:57.858Z,77.40
2022-12-25T14:36:07.655Z,78.30
2022-12-25T14:38:23.940Z,78.10
2022-12-25T14:40:33.100Z,78.10
2022-12-25T14:42:40.411Z,78.40
2022-12-25T14:44:47.331Z,78.60
2022-12-25T14:46:54.655Z,78.30
2022-12-25T14:49:06.404Z,77.50
2022-12-25T14:51:19.774Z,78.00
2022-12-25T14:53:31.316Z,80.20
2022-12-25T14:55:37.736Z,79.10
2022-12-25T14:57:50.444Z,80.40
2022-12-25T15:00:07.453Z,79.50
2022-12-25T15:02:21.988Z,79.70
2022-12-25T15:04:31.493Z,79.30
2022-12-25T15:06:42.836Z,79.50
2022-12-25T15:08:59.986Z,79.60
2022-12-25T15:11:07.530Z,80.20
2022-12-25T15:13:15.643Z,80.00
2022-12-25T15:15:22.452Z,78.90
2022-12-25T15:17:32.863Z,79.50
2022-12-25T15:19:41.013Z,79.80
2022-12-25T15:21:49.936Z,79.90
2022-12-25T15:23:57.327Z,80.10
2022-12-25T15:26:04.711Z,80.10
2022-12-25T15:28:14.004Z,80.20
2022-12-25T15:30:22.359Z,80.10
2022-12-25T15:32:29.172Z,80.20
2022-12-25T15:34:36.303Z,80.20
2022-12-25T15:36:43.126Z,80.50
2022-12-25T15:38:52.001Z,80.40
2022-12-25T15:40:58.819Z,79.60
2022-12-25T15:43:11.493Z,79.70
2022-12-25T15:45:31.358Z,80.40
2022-12-25T15:47:38.429Z,80.50
2022-12-25T15:49:45.987Z,80.50
2022-12-25T15:51:53.097Z,80.40
2022-12-25T15:54:01.774Z,79.90
2022-12-25T15:56:10.076Z,79.20
2022-12-25T15:58:17.681Z,79.40
2022-12-25T16:00:26.911Z,79.60
2022-12-25T16:02:33.834Z,79.90
2022-12-25T16:04:43.416Z,80.40
2022-12-25T16:06:50.519Z,80.60
2022-12-25T16:08:57.628Z,81.30
2022-12-25T16:11:06.146Z,81.50
2022-12-25T16:13:13.252Z,81.60
2022-12-25T16:15:20.094Z,81.60
2022-12-25T16:17:27.331Z,81.50
2022-12-25T16:19:34.096Z,81.20
2022-12-25T16:21:47.235Z,80.80
2022-12-25T16:23:54.656Z,80.70
2022-12-25T16:26:01.632Z,81.30
2022-12-25T16:28:11.421Z,81.60
2022-12-25T16:30:20.895Z,82.00
2022-12-25T16:32:27.870Z,81.90
2022-12-25T16:34:34.648Z,81.60
2022-12-25T16:36:41.583Z,81.50
2022-12-25T16:38:48.194Z,81.50
2022-12-25T16:40:59.686Z,81.80
2022-12-25T16:43:06.499Z,82.10
2022-12-25T16:45:15.849Z,82.30
2022-12-25T16:47:23.124Z,82.40
2022-12-25T16:49:30.258Z,82.10
2022-12-25T16:51:37.133Z,82.40
2022-12-25T16:53:44.502Z,82.30
2022-12-25T16:55:51.277Z,82.50
2022-12-25T16:57:58.319Z,82.20
2022-12-25T17:00:05.121Z,82.40
2022-12-25T17:02:17.930Z,82.70
2022-12-25T17:04:24.629Z,82.70
2022-12-25T17:06:31.757Z,82.90
2022-12-25T17:08:38.627Z,83.00
2022-12-25T17:10:45.861Z,83.10
2022-12-25T17:12:52.637Z,83.40
2022-12-25T17:14:59.814Z,82.90
2022-12-25T17:17:06.790Z,82.90
2022-12-25T17:19:22.077Z,83.30
2022-12-25T17:21:29.189Z,82.60
2022-12-25T17:23:36.169Z,82.60
2022-12-25T17:25:43.302Z,83.00
2022-12-25T17:27:53.553Z,83.40
2022-12-25T17:30:01.451Z,83.80
2022-12-25T17:32:08.994Z,83.90
2022-12-25T17:34:17.658Z,84.10
2022-12-25T17:36:25.557Z,84.10
2022-12-25T17:38:33.876Z,84.20
2022-12-25T17:40:41.002Z,84.30
2022-12-25T17:42:48.077Z,84.20
2022-12-25T17:44:55.314Z,84.00
2022-12-25T17:47:02.161Z,84.00
2022-12-25T17:49:09.721Z,84.00
2022-12-25T17:51:19.769Z,84.10
2022-12-25T17:53:26.849Z,83.60
2022-12-25T17:55:35.470Z,83.60
2022-12-25T17:57:42.492Z,84.00
2022-12-25T17:59:49.315Z,84.10
2022-12-25T18:01:56.581Z,84.10
2022-12-25T18:04:04.387Z,83.90
2022-12-25T18:06:14.307Z,84.10
2022-12-25T18:08:22.700Z,84.10
2022-12-25T18:10:29.780Z,84.20
2022-12-25T18:12:36.611Z,83.80
2022-12-25T18:14:43.781Z,83.60
2022-12-25T18:16:50.960Z,83.70
2022-12-25T18:18:58.199Z,83.50
2022-12-25T18:21:05.386Z,83.80
2022-12-25T18:23:12.461Z,84.10
2022-12-25T18:25:21.023Z,84.40
2022-12-25T18:27:28.051Z,84.30
2022-12-25T18:29:34.831Z,84.50
2022-12-25T18:31:42.080Z,84.70
2022-12-25T18:33:49.285Z,85.10
2022-12-25T18:36:03.547Z,85.30
2022-12-25T18:38:12.056Z,85.50
2022-12-25T18:40:20.971Z,85.80
2022-12-25T18:42:42.589Z,86.00
2022-12-25T18:44:49.158Z,86.30
2022-12-25T18:46:55.981Z,87.20
2022-12-25T18:49:03.010Z,86.50
2022-12-25T18:51:12.184Z,86.40
2022-12-25T18:53:20.344Z,86.50
2022-12-25T18:55:28.811Z,86.60
2022-12-25T18:57:36.394Z,86.60
2022-12-25T18:59:43.320Z,86.60
2022-12-25T19:01:50.500Z,86.50
2022-12-25T19:04:04.050Z,86.60
2022-12-25T19:06:12.442Z,86.20
2022-12-25T19:08:19.315Z,86.20
2022-12-25T19:10:27.931Z,86.30
2022-12-25T19:12:34.756Z,86.30
2022-12-25T19:14:47.711Z,86.20
2022-12-25T19:16:55.248Z,86.20
2022-12-25T19:19:02.596Z,86.20
2022-12-25T19:21:11.109Z,86.60
2022-12-25T19:23:18.188Z,86.20
2022-12-25T19:25:25.427Z,86.30
2022-12-25T19:27:34.343Z,86.60
2022-12-25T19:29:41.231Z,86.90
2022-12-25T19:31:48.479Z,87.30
2022-12-25T19:33:55.325Z,87.50
2022-12-25T19:36:03.624Z,87.50
2022-12-25T19:38:10.560Z,87.50
2022-12-25T19:40:17.780Z,87.30
2022-12-25T19:42:24.562Z,87.40
2022-12-25T19:44:33.493Z,87.30
2022-12-25T19:46:43.175Z,87.30
2022-12-25T19:48:50.218Z,87.40
2022-12-25T19:50:57.595Z,87.60
2022-12-25T19:53:04.417Z,87.50
2022-12-25T19:55:12.158Z,87.40
2022-12-25T19:57:18.982Z,87.40
2022-12-25T19:59:26.066Z,87.10
2022-12-25T20:01:35.713Z,86.80
2022-12-25T20:03:46.177Z,87.10
2022-12-25T20:05:53.752Z,87.20
2022-12-25T20:08:00.827Z,87.20
2022-12-25T20:10:08.215Z,87.60
2022-12-25T20:12:17.341Z,88.30
2022-12-25T20:14:24.368Z,88.60
2022-12-25T20:16:31.739Z,88.90
2022-12-25T20:18:40.781Z,88.30
2022-12-25T20:20:48.473Z,88.60
2022-12-25T20:22:55.454Z,88.90
2022-12-25T20:25:04.987Z,89.10
2022-12-25T20:27:11.869Z,88.70
2022-12-25T20:29:18.949Z,88.60
2022-12-25T20:31:29.318Z,88.20
2022-12-25T20:33:39.462Z,88.40
2022-12-25T20:35:49.618Z,88.90
2022-12-25T20:37:56.588Z,89.20
2022-12-25T20:40:03.355Z,89.20
2022-12-25T20:42:10.733Z,89.20
2022-12-25T20:44:17.506Z,89.00
2022-12-25T20:46:24.855Z,89.10
2022-12-25T20:48:31.970Z,89.00
2022-12-25T20:50:40.946Z,89.00
2022-12-25T20:52:47.766Z,88.80
2022-12-25T20:54:54.899Z,88.70
2022-12-25T20:57:01.668Z,89.00
2022-12-25T20:59:08.697Z,89.00
2022-12-25T21:01:17.426Z,88.70
2022-12-25T21:03:24.778Z,89.30
2022-12-25T21:05:32.456Z,89.70
2022-12-25T21:07:41.621Z,90.00
2022-12-25T21:09:48.496Z,89.70
2022-12-25T21:11:55.474Z,89.70
2022-12-25T21:14:02.296Z,89.50
2022-12-25T21:16:10.958Z,89.70
2022-12-25T21:18:18.042Z,89.70
2022-12-25T21:20:25.121Z,89.80
2022-12-25T21:22:32.047Z,90.00
2022-12-25T21:24:40.970Z,89.70
2022-12-25T21:26:48.454Z,89.40
2022-12-25T21:28:58.302Z,90.10
2022-12-25T21:31:06.055Z,90.10
2022-12-25T21:33:32.227Z,90.30
2022-12-25T21:35:40.590Z,90.10
2022-12-25T21:37:47.558Z,90.00
2022-12-25T21:39:56.122Z,89.90
2022-12-25T21:42:05.461Z,89.60
2022-12-25T21:44:13.917Z,89.70
2022-12-25T21:46:20.999Z,90.10
2022-12-25T21:48:27.871Z,90.20
2022-12-25T21:50:51.183Z,89.90
2022-12-25T21:52:58.043Z,89.60
2022-12-25T21:55:06.623Z,89.80
2022-12-25T21:57:13.798Z,89.80
2022-12-25T21:59:22.615Z,89.50
2022-12-25T22:01:30.322Z,89.50
2022-12-25T22:03:37.291Z,89.50
2022-12-25T22:06:00.557Z,89.40
2022-12-25T22:08:08.086Z,89.60
2022-12-25T22:10:16.651Z,89.60
2022-12-25T22:12:40.629Z,89.60
2022-12-25T22:14:56.599Z,89.50
2022-12-25T22:17:20.895Z,89.50
2022-12-25T22:19:49.120Z,89.30
2022-12-25T22:21:56.148Z,89.20
2022-12-25T22:24:03.179Z,89.20
2022-12-25T22:26:17.284Z,89.50
2022-12-25T22:28:27.371Z,89.20
2022-12-25T22:30:34.450Z,89.60
2022-12-25T22:32:41.293Z,90.10
2022-12-25T22:34:48.352Z,90.20
2022-12-25T22:36:54.969Z,90.00
2022-12-25T22:39:02.052Z,90.20
2022-12-25T22:41:11.739Z,90.10
2022-12-25T22:43:18.820Z,90.10
2022-12-25T22:45:25.695Z,90.10
2022-12-25T22:47:32.760Z,89.80
2022-12-25T22:49:39.806Z,89.50
2022-12-25T22:51:47.293Z,89.70
2022-12-25T22:53:57.399Z,90.00
2022-12-25T22:56:07.182Z,90.40
2022-12-25T22:58:15.744Z,91.00
2022-12-25T23:00:22.927Z,91.20
2022-12-25T23:02:29.927Z,91.40
2022-12-25T23:04:36.982Z,91.50
2022-12-25T23:06:45.035Z,91.50
2022-12-25T23:08:52.371Z,91.20
2022-12-25T23:11:03.685Z,90.80
2022-12-25T23:13:28.595Z,90.50
2022-12-25T23:15:37.180Z,90.50
2022-12-25T23:18:00.576Z,90.50
2022-12-25T23:20:25.990Z,90.50
2022-12-25T23:23:04.452Z,90.20
2022-12-25T23:25:33.497Z,90.60
2022-12-25T23:27:40.311Z,90.40
2022-12-25T23:29:46.263Z,90.30
2022-12-25T23:31:55.340Z,90.30
2022-12-25T23:34:02.728Z,90.10
2022-12-25T23:36:10.289Z,90.60
2022-12-25T23:38:17.087Z,90.70
2022-12-25T23:40:24.348Z,90.90
2022-12-25T23:42:31.197Z,91.00
2022-12-25T23:44:38.375Z,90.90
2022-12-25T23:46:52.578Z,91.30
2022-12-25T23:49:02.210Z,91.40
2022-12-25T23:51:09.801Z,91.70
2022-12-25T23:53:16.829Z,92.40
2022-12-25T23:55:23.602Z,92.80
2022-12-25T23:57:30.787Z,92.80
2022-12-25T23:59:37.708Z,92.70
